createdAt,value
2019-03-30T00:01:31.716Z,11.30
2019-03-30T00:03:57.820Z,11.30
2019-03-30T00:06:23.939Z,11.30
2019-03-30T00:08:50.064Z,11.30
2019-03-30T00:11:16.270Z,11.30
2019-03-30T00:13:42.393Z,11.30
2019-03-30T00:16:08.520Z,11.30
2019-03-30T00:18:34.641Z,11.30
2019-03-30T00:21:00.756Z,11.20
2019-03-30T00:23:26.951Z,11.20
2019-03-30T00:25:53.105Z,11.20
2019-03-30T00:28:19.230Z,11.20
2019-03-30T00:30:45.435Z,11.20
2019-03-30T00:33:11.554Z,11.20
2019-03-30T00:35:37.637Z,11.20
2019-03-30T00:38:03.879Z,11.20
2019-03-30T00:40:29.977Z,11.20
2019-03-30T00:42:56.099Z,11.20
2019-03-30T00:45:22.471Z,11.10
2019-03-30T00:47:48.807Z,11.10
2019-03-30T00:50:14.909Z,11.10
2019-03-30T00:52:41.009Z,11.00
2019-03-30T00:55:07.244Z,11.00
2019-03-30T00:57:33.354Z,11.00
2019-03-30T00:59:59.556Z,11.00
2019-03-30T01:02:25.742Z,11.00
2019-03-30T01:04:51.857Z,11.00
2019-03-30T01:07:17.951Z,10.90
2019-03-30T01:09:44.093Z,10.90
2019-03-30T01:12:10.715Z,10.90
2019-03-30T01:14:36.950Z,10.90
2019-03-30T01:17:03.138Z,10.90
2019-03-30T01:19:29.272Z,10.90
2019-03-30T01:21:56.282Z,10.90
2019-03-30T01:24:22.584Z,10.80
2019-03-30T01:26:48.794Z,10.80
2019-03-30T01:29:14.943Z,10.80
2019-03-30T01:31:41.132Z,10.80
2019-03-30T01:34:07.321Z,10.70
2019-03-30T01:36:33.449Z,10.70
2019-03-30T01:38:59.597Z,10.70
2019-03-30T01:41:25.786Z,10.70
2019-03-30T01:43:51.884Z,10.70
2019-03-30T01:46:18.006Z,10.70
2019-03-30T01:48:44.219Z,10.70
2019-03-30T01:51:10.491Z,10.70
2019-03-30T01:53:36.586Z,10.70
2019-03-30T01:56:02.684Z,10.60
2019-03-30T01:58:28.801Z,10.60
2019-03-30T02:00:54.905Z,10.70
2019-03-30T02:03:21.034Z,10.60
2019-03-30T02:05:47.224Z,10.60
2019-03-30T02:08:13.338Z,10.60
2019-03-30T02:10:41.343Z,10.60
2019-03-30T02:13:07.683Z,10.60
2019-03-30T02:15:33.920Z,10.60
2019-03-30T02:18:00.137Z,10.60
2019-03-30T02:20:40.799Z,10.60
2019-03-30T02:23:07.226Z,10.60
2019-03-30T02:25:33.442Z,10.60
2019-03-30T02:27:59.556Z,10.50
2019-03-30T02:30:25.659Z,10.50
2019-03-30T02:32:51.792Z,10.50
2019-03-30T02:35:18.015Z,10.50
2019-03-30T02:37:44.107Z,10.40
2019-03-30T02:40:10.718Z,10.40
2019-03-30T02:42:36.834Z,10.40
2019-03-30T02:45:04.835Z,10.40
2019-03-30T02:47:31.042Z,10.40
2019-03-30T02:49:57.130Z,10.30
2019-03-30T02:52:23.364Z,10.30
2019-03-30T02:54:49.562Z,10.30
2019-03-30T02:57:15.781Z,10.30
2019-03-30T02:59:41.883Z,10.30
2019-03-30T03:02:07.995Z,10.30
2019-03-30T03:04:34.103Z,10.30
2019-03-30T03:07:00.223Z,10.20
2019-03-30T03:09:26.343Z,10.20
2019-03-30T03:11:52.445Z,10.20
2019-03-30T03:14:18.547Z,10.20
2019-03-30T03:16:44.676Z,10.20
2019-03-30T03:19:10.911Z,10.20
2019-03-30T03:21:37.115Z,10.10
2019-03-30T03:24:03.235Z,10.10
2019-03-30T03:26:29.442Z,10.10
2019-03-30T03:28:55.562Z,10.10
2019-03-30T03:31:21.788Z,10.10
2019-03-30T03:33:48.088Z,10.10
2019-03-30T03:36:14.287Z,10.00
2019-03-30T03:38:40.411Z,10.00
2019-03-30T03:41:07.062Z,10.00
2019-03-30T03:43:33.178Z,10.00
2019-03-30T03:45:59.299Z,9.90
2019-03-30T03:48:25.388Z,9.90
2019-03-30T03:50:58.402Z,9.90
2019-03-30T03:53:24.810Z,9.90
2019-03-30T03:55:52.140Z,9.90
2019-03-30T03:58:22.063Z,9.90
2019-03-30T04:00:51.170Z,9.90
2019-03-30T04:03:17.510Z,10.00
2019-03-30T04:05:45.336Z,9.90
2019-03-30T04:08:12.062Z,10.00
2019-03-30T04:10:38.861Z,10.00
2019-03-30T04:13:07.382Z,10.00
2019-03-30T04:15:33.701Z,10.00
2019-03-30T04:17:59.822Z,9.90
2019-03-30T04:20:26.019Z,9.90
2019-03-30T04:22:52.940Z,9.90
2019-03-30T04:25:19.083Z,9.90
2019-03-30T04:27:45.202Z,9.90
2019-03-30T04:30:11.637Z,9.90
2019-03-30T04:32:37.819Z,9.90
2019-03-30T04:35:04.950Z,9.90
2019-03-30T04:37:31.068Z,10.00
2019-03-30T04:39:57.192Z,9.90
2019-03-30T04:42:23.287Z,9.90
2019-03-30T04:44:49.400Z,9.90
2019-03-30T04:47:15.595Z,9.90
2019-03-30T04:49:41.793Z,9.90
2019-03-30T04:52:08.128Z,9.90
2019-03-30T04:54:34.249Z,9.90
2019-03-30T04:57:00.482Z,9.90
2019-03-30T04:59:26.581Z,9.80
2019-03-30T05:01:52.702Z,9.80
2019-03-30T05:04:18.799Z,9.80
2019-03-30T05:06:45.068Z,9.80
2019-03-30T05:09:11.254Z,9.80
2019-03-30T05:11:37.400Z,9.80
2019-03-30T05:14:03.494Z,9.80
2019-03-30T05:16:29.604Z,9.80
2019-03-30T05:18:55.733Z,9.80
2019-03-30T05:21:21.924Z,9.80
2019-03-30T05:23:48.155Z,9.80
2019-03-30T05:26:14.277Z,9.70
2019-03-30T05:28:40.402Z,9.70
2019-03-30T05:31:06.637Z,9.70
2019-03-30T05:33:32.849Z,9.60
2019-03-30T05:35:59.071Z,9.60
2019-03-30T05:38:25.296Z,9.60
2019-03-30T05:40:51.485Z,9.70
2019-03-30T05:43:17.579Z,9.70
2019-03-30T05:45:43.769Z,9.70
2019-03-30T05:48:10.084Z,9.70
2019-03-30T05:50:36.302Z,9.70
2019-03-30T05:53:02.414Z,9.70
2019-03-30T05:55:28.508Z,9.70
2019-03-30T05:57:54.710Z,9.80
2019-03-30T06:00:22.709Z,9.80
2019-03-30T06:02:48.829Z,9.80
2019-03-30T06:05:14.927Z,9.90
2019-03-30T06:07:41.051Z,9.90
2019-03-30T06:10:07.365Z,10.00
2019-03-30T06:12:33.478Z,10.00
2019-03-30T06:14:59.691Z,10.10
2019-03-30T06:17:25.818Z,10.20
2019-03-30T06:19:51.939Z,10.20
2019-03-30T06:22:18.092Z,10.30
2019-03-30T06:24:44.311Z,10.30
2019-03-30T06:27:10.439Z,10.40
2019-03-30T06:29:36.661Z,10.50
2019-03-30T06:32:03.857Z,10.60
2019-03-30T06:34:29.983Z,10.70
2019-03-30T06:36:56.175Z,10.80
2019-03-30T06:39:22.383Z,10.80
2019-03-30T06:41:48.591Z,10.90
2019-03-30T06:44:14.709Z,11.00
2019-03-30T06:46:40.853Z,11.10
2019-03-30T06:49:07.052Z,11.10
2019-03-30T06:51:33.180Z,11.20
2019-03-30T06:53:59.271Z,11.30
2019-03-30T06:56:25.395Z,11.30
2019-03-30T06:58:51.523Z,11.40
2019-03-30T07:01:18.238Z,11.50
2019-03-30T07:03:44.955Z,11.50
2019-03-30T07:06:11.925Z,11.60
2019-03-30T07:08:41.243Z,11.70
2019-03-30T07:11:20.513Z,11.70
2019-03-30T07:13:38.533Z,11.80
2019-03-30T07:16:08.199Z,11.90
2019-03-30T07:18:35.134Z,12.00
2019-03-30T07:21:01.239Z,12.00
2019-03-30T07:26:01.055Z,12.10
2019-03-30T07:28:47.419Z,12.30
2019-03-30T07:31:13.610Z,12.30
2019-03-30T07:33:39.724Z,12.40
2019-03-30T07:36:05.843Z,12.40
2019-03-30T07:38:32.079Z,12.40
2019-03-30T07:40:58.220Z,12.40
2019-03-30T07:43:24.334Z,12.40
2019-03-30T08:51:47.164Z,14.00
2019-03-30T08:54:15.883Z,14.20
2019-03-30T09:10:39.472Z,14.90
2019-03-30T09:15:04.540Z,15.10
2019-03-30T09:17:30.674Z,15.30
2019-03-30T09:19:56.862Z,15.40
2019-03-30T09:22:22.999Z,15.50
2019-03-30T09:24:49.207Z,15.50
2019-03-30T09:27:15.404Z,15.60
2019-03-30T09:29:41.517Z,15.60
2019-03-30T09:32:14.478Z,15.70
2019-03-30T09:34:35.635Z,15.70
2019-03-30T09:37:01.752Z,15.70
2019-03-30T09:39:27.877Z,15.70
2019-03-30T09:41:54.046Z,15.60
2019-03-30T09:44:20.166Z,15.60
2019-03-30T09:46:46.385Z,15.70
2019-03-30T09:49:12.503Z,15.70
2019-03-30T09:51:38.752Z,15.70
2019-03-30T09:54:04.875Z,15.70
2019-03-30T09:56:31.003Z,15.80
2019-03-30T09:58:57.200Z,15.80
2019-03-30T10:01:23.314Z,15.80
2019-03-30T10:03:49.424Z,15.90
2019-03-30T10:06:15.553Z,16.00
2019-03-30T10:08:41.787Z,16.00
2019-03-30T10:11:07.905Z,16.10
2019-03-30T10:13:34.020Z,16.20
2019-03-30T10:16:00.326Z,16.30
2019-03-30T10:18:26.516Z,16.40
2019-03-30T10:20:52.632Z,16.50
2019-03-30T10:23:18.742Z,16.50
2019-03-30T10:25:44.868Z,16.60
2019-03-30T10:28:11.003Z,16.80
2019-03-30T10:30:37.203Z,16.90
2019-03-30T10:33:03.311Z,16.90
2019-03-30T10:35:29.527Z,17.00
2019-03-30T10:37:55.632Z,17.00
2019-03-30T10:40:21.876Z,17.20
2019-03-30T10:42:48.063Z,17.20
2019-03-30T10:45:14.404Z,17.10
2019-03-30T10:47:40.498Z,17.10
2019-03-30T10:50:07.939Z,17.30
2019-03-30T10:52:37.890Z,17.50
2019-03-30T10:55:05.187Z,17.60
2019-03-30T10:57:31.337Z,17.70
2019-03-30T10:59:57.429Z,17.80
2019-03-30T11:02:23.539Z,17.90
2019-03-30T11:04:49.680Z,18.00
2019-03-30T11:07:15.829Z,18.00
2019-03-30T11:09:42.158Z,18.20
2019-03-30T11:12:08.387Z,18.20
2019-03-30T11:14:37.823Z,18.30
2019-03-30T11:17:04.031Z,18.40
2019-03-30T11:19:30.245Z,18.40
2019-03-30T11:21:56.454Z,18.50
2019-03-30T11:24:22.644Z,18.80
2019-03-30T11:26:48.822Z,18.90
2019-03-30T11:29:14.936Z,18.90
2019-03-30T11:31:41.086Z,18.90
2019-03-30T11:34:07.579Z,18.90
2019-03-30T11:36:33.818Z,19.10
2019-03-30T11:39:00.011Z,19.30
2019-03-30T11:41:26.332Z,19.40
2019-03-30T11:43:52.493Z,19.60
2019-03-30T11:46:24.010Z,19.50
2019-03-30T11:48:50.220Z,19.30
2019-03-30T11:51:16.338Z,19.30
2019-03-30T11:53:42.454Z,19.20
2019-03-30T11:56:08.574Z,19.10
2019-03-30T11:58:34.775Z,19.10
2019-03-30T12:01:00.945Z,19.30
2019-03-30T12:03:27.144Z,19.60
2019-03-30T12:05:53.391Z,19.70
2019-03-30T12:08:19.623Z,19.80
2019-03-30T12:10:45.963Z,20.00
2019-03-30T12:13:12.114Z,20.30
2019-03-30T12:15:38.401Z,20.30
2019-03-30T12:18:04.635Z,20.50
2019-03-30T12:20:30.835Z,20.70
2019-03-30T12:22:56.955Z,20.90
2019-03-30T12:25:34.807Z,21.00
2019-03-30T12:27:51.460Z,21.00
2019-03-30T12:30:17.678Z,20.80
2019-03-30T12:32:43.894Z,20.90
2019-03-30T12:35:10.312Z,21.00
2019-03-30T12:37:36.521Z,21.10
2019-03-30T12:40:04.560Z,21.10
2019-03-30T12:42:30.801Z,20.90
2019-03-30T12:44:56.927Z,20.70
2019-03-30T12:47:23.058Z,20.70
2019-03-30T12:49:49.321Z,20.60
2019-03-30T12:52:15.432Z,20.70
2019-03-30T12:54:41.558Z,20.90
2019-03-30T12:57:07.678Z,21.10
2019-03-30T12:59:34.030Z,21.30
2019-03-30T13:02:00.216Z,21.30
2019-03-30T13:04:26.297Z,21.10
2019-03-30T13:06:52.427Z,21.20
2019-03-30T13:09:18.538Z,21.60
2019-03-30T13:11:44.670Z,21.70
2019-03-30T13:14:11.339Z,21.60
2019-03-30T13:16:37.618Z,21.80
2019-03-30T13:19:03.789Z,21.70
2019-03-30T13:21:32.351Z,21.30
2019-03-30T13:23:58.091Z,21.20
2019-03-30T13:26:24.248Z,21.10
2019-03-30T13:28:50.454Z,21.00
2019-03-30T13:31:16.648Z,20.80
2019-03-30T13:33:42.773Z,20.60
2019-03-30T13:36:10.703Z,20.40
2019-03-30T13:38:37.087Z,20.10
2019-03-30T13:41:03.198Z,19.90
2019-03-30T13:43:29.316Z,19.70
2019-03-30T13:45:55.429Z,19.60
2019-03-30T13:48:21.544Z,19.60
2019-03-30T13:50:47.647Z,19.60
2019-03-30T13:53:13.759Z,19.30
2019-03-30T13:55:39.855Z,19.20
2019-03-30T13:58:05.978Z,19.10
2019-03-30T14:00:32.087Z,19.20
2019-03-30T14:02:58.213Z,19.10
2019-03-30T14:05:24.355Z,19.20
2019-03-30T14:07:50.877Z,19.20
2019-03-30T14:10:17.091Z,19.30
2019-03-30T14:12:43.192Z,19.30
2019-03-30T14:15:09.767Z,19.40
2019-03-30T14:17:35.926Z,19.60
2019-03-30T14:20:04.783Z,19.70
2019-03-30T14:22:30.893Z,19.90
2019-03-30T14:24:57.011Z,20.30
2019-03-30T14:27:23.627Z,20.80
2019-03-30T14:29:50.029Z,21.00
2019-03-30T14:32:16.153Z,20.90
2019-03-30T14:34:42.495Z,20.80
2019-03-30T14:37:08.727Z,20.60
2019-03-30T14:39:34.867Z,20.40
2019-03-30T14:42:01.006Z,20.40
2019-03-30T14:44:27.226Z,20.30
2019-03-30T14:46:53.428Z,20.20
2019-03-30T14:49:19.568Z,20.00
2019-03-30T14:51:45.764Z,19.80
2019-03-30T14:54:12.020Z,19.90
2019-03-30T14:56:45.329Z,20.00
2019-03-30T14:59:10.350Z,20.10
2019-03-30T15:01:34.304Z,20.00
2019-03-30T15:04:00.528Z,20.10
2019-03-30T15:06:26.669Z,20.20
2019-03-30T15:08:52.842Z,20.10
2019-03-30T15:11:18.951Z,20.10
2019-03-30T15:13:45.063Z,20.10
2019-03-30T15:16:11.209Z,20.00
2019-03-30T15:18:37.535Z,19.80
2019-03-30T15:21:03.643Z,19.70
2019-03-30T15:23:29.751Z,19.40
2019-03-30T15:25:55.890Z,19.30
2019-03-30T15:28:22.079Z,19.10
2019-03-30T15:30:48.221Z,19.00
2019-03-30T15:33:14.525Z,18.80
2019-03-30T15:35:40.739Z,18.80
2019-03-30T15:38:08.380Z,18.60
2019-03-30T15:40:34.506Z,18.60
2019-03-30T15:43:00.602Z,18.50
2019-03-30T15:45:26.730Z,18.40
2019-03-30T15:47:52.882Z,18.40
2019-03-30T15:50:19.444Z,18.50
2019-03-30T15:52:45.568Z,18.70
2019-03-30T15:55:11.786Z,18.90
2019-03-30T15:57:38.416Z,19.00
2019-03-30T16:00:11.151Z,19.20
2019-03-30T16:02:37.400Z,19.30
2019-03-30T16:05:05.902Z,19.40
2019-03-30T16:07:32.087Z,19.40
2019-03-30T16:09:58.315Z,19.40
2019-03-30T16:12:24.947Z,19.30
2019-03-30T16:14:51.163Z,19.20
2019-03-30T16:17:17.440Z,19.00
2019-03-30T16:19:43.878Z,18.70
2019-03-30T16:22:10.190Z,18.60
2019-03-30T16:24:36.399Z,18.60
2019-03-30T16:27:03.107Z,18.50
2019-03-30T16:29:29.312Z,18.50
2019-03-30T16:31:55.530Z,18.40
2019-03-30T16:34:21.649Z,18.30
2019-03-30T16:36:47.778Z,18.20
2019-03-30T16:39:13.984Z,18.20
2019-03-30T16:41:40.235Z,18.10
2019-03-30T16:44:06.455Z,18.10
2019-03-30T16:46:32.577Z,18.00
2019-03-30T16:48:58.688Z,17.90
2019-03-30T16:51:24.807Z,17.80
2019-03-30T16:53:50.913Z,17.70
2019-03-30T16:56:17.228Z,17.60
2019-03-30T16:58:43.418Z,17.50
2019-03-30T17:01:09.562Z,17.50
2019-03-30T17:03:35.696Z,17.40
2019-03-30T17:06:01.804Z,17.40
2019-03-30T17:08:27.887Z,17.40
2019-03-30T17:10:54.011Z,17.40
2019-03-30T17:13:20.153Z,17.40
2019-03-30T17:15:46.463Z,17.40
2019-03-30T17:18:12.564Z,17.30
2019-03-30T17:20:38.665Z,17.30
2019-03-30T17:23:04.772Z,17.30
2019-03-30T17:25:30.862Z,17.20
2019-03-30T17:27:58.970Z,17.20
2019-03-30T17:30:25.427Z,17.10
2019-03-30T17:32:51.539Z,17.10
2019-03-30T17:35:17.947Z,17.10
2019-03-30T17:37:44.149Z,17.10
2019-03-30T17:40:10.763Z,17.00
2019-03-30T17:42:39.308Z,17.00
2019-03-30T17:45:07.402Z,16.90
2019-03-30T17:47:33.605Z,16.80
2019-03-30T17:49:59.726Z,16.70
2019-03-30T17:52:25.955Z,16.60
2019-03-30T17:54:52.126Z,16.60
2019-03-30T17:57:18.527Z,16.40
2019-03-30T17:59:44.744Z,16.40
2019-03-30T18:02:10.871Z,16.30
2019-03-30T18:04:38.906Z,16.30
2019-03-30T18:07:05.051Z,16.10
2019-03-30T18:09:31.151Z,16.10
2019-03-30T18:11:57.310Z,16.00
2019-03-30T18:14:23.416Z,16.00
2019-03-30T18:16:49.525Z,15.90
2019-03-30T18:19:15.661Z,15.80
2019-03-30T18:21:41.809Z,15.80
2019-03-30T18:24:08.005Z,15.80
2019-03-30T18:26:34.090Z,15.70
2019-03-30T18:29:00.231Z,15.60
2019-03-30T18:31:26.524Z,15.60
2019-03-30T18:33:53.033Z,15.60
2019-03-30T18:36:19.451Z,15.60
2019-03-30T18:38:45.975Z,15.50
2019-03-30T18:41:12.082Z,15.50
2019-03-30T18:43:38.290Z,15.40
2019-03-30T18:46:04.512Z,15.40
2019-03-30T18:48:30.619Z,15.40
2019-03-30T18:50:57.623Z,15.30
2019-03-30T18:53:23.747Z,15.30
2019-03-30T18:55:49.852Z,15.20
2019-03-30T18:58:16.167Z,15.20
2019-03-30T19:00:42.485Z,15.10
2019-03-30T19:03:08.978Z,15.10
2019-03-30T19:05:35.271Z,15.00
2019-03-30T19:08:02.008Z,15.00
2019-03-30T19:10:28.184Z,15.00
2019-03-30T19:12:54.306Z,14.90
2019-03-30T19:15:20.396Z,14.90
2019-03-30T19:17:46.509Z,14.90
2019-03-30T19:20:12.716Z,14.80
2019-03-30T19:22:38.813Z,14.80
2019-03-30T19:25:05.838Z,14.70
2019-03-30T19:27:32.247Z,14.70
2019-03-30T19:29:58.429Z,14.70
2019-03-30T19:32:24.599Z,14.60
2019-03-30T19:34:50.783Z,14.50
2019-03-30T19:37:16.895Z,14.50
2019-03-30T19:39:43.010Z,14.50
2019-03-30T19:42:09.122Z,14.40
2019-03-30T19:44:35.240Z,14.40
2019-03-30T19:47:01.368Z,14.30
2019-03-30T19:49:27.461Z,14.20
2019-03-30T19:51:53.571Z,14.20
2019-03-30T19:54:19.661Z,14.20
2019-03-30T19:56:45.780Z,14.10
2019-03-30T19:59:14.087Z,14.10
2019-03-30T20:01:43.166Z,14.10
2019-03-30T20:04:09.458Z,14.00
2019-03-30T20:06:35.570Z,14.00
2019-03-30T20:09:04.082Z,13.90
2019-03-30T20:11:30.170Z,13.90
2019-03-30T20:13:56.309Z,13.90
2019-03-30T20:16:22.425Z,13.80
2019-03-30T20:18:48.518Z,13.80
2019-03-30T20:21:14.642Z,13.80
2019-03-30T20:23:40.729Z,13.80
2019-03-30T20:26:06.851Z,13.80
2019-03-30T20:28:32.941Z,13.80
2019-03-30T20:30:59.359Z,13.70
2019-03-30T20:33:25.450Z,13.70
2019-03-30T20:35:51.596Z,13.70
2019-03-30T20:38:17.782Z,13.70
2019-03-30T20:40:44.018Z,13.70
2019-03-30T20:43:10.115Z,13.70
2019-03-30T20:45:36.200Z,13.70
2019-03-30T20:48:02.461Z,13.70
2019-03-30T20:50:28.656Z,13.70
2019-03-30T20:52:54.897Z,13.70
2019-03-30T20:55:21.052Z,13.60
2019-03-30T20:57:47.688Z,13.60
2019-03-30T21:00:14.848Z,13.60
2019-03-30T21:02:40.997Z,13.60
2019-03-30T21:05:08.397Z,13.60
2019-03-30T21:07:34.491Z,13.50
2019-03-30T21:10:00.715Z,13.50
2019-03-30T21:12:26.825Z,13.50
2019-03-30T21:14:52.967Z,13.40
2019-03-30T21:17:19.099Z,13.40
2019-03-30T21:19:45.319Z,13.40
2019-03-30T21:22:11.436Z,13.40
2019-03-30T21:24:37.530Z,13.30
2019-03-30T21:27:03.841Z,13.30
2019-03-30T21:29:29.943Z,13.30
2019-03-30T21:31:56.037Z,13.30
2019-03-30T21:34:22.246Z,13.30
2019-03-30T21:36:48.431Z,13.20
2019-03-30T21:39:14.664Z,13.20
2019-03-30T21:41:40.764Z,13.10
2019-03-30T21:44:21.114Z,13.10
2019-03-30T21:46:34.899Z,13.00
2019-03-30T21:49:01.297Z,13.00
2019-03-30T21:51:27.484Z,12.90
2019-03-30T21:53:53.695Z,12.90
2019-03-30T21:56:19.853Z,12.80
2019-03-30T21:58:46.081Z,12.80
2019-03-30T22:01:12.293Z,12.90
2019-03-30T22:03:38.479Z,12.80
2019-03-30T22:06:04.718Z,12.90
2019-03-30T22:08:31.313Z,12.90
2019-03-30T22:10:57.417Z,12.80
2019-03-30T22:13:23.528Z,12.90
2019-03-30T22:15:49.643Z,12.80
2019-03-30T22:18:15.750Z,12.80
2019-03-30T22:20:41.879Z,12.80
2019-03-30T22:23:08.204Z,12.70
2019-03-30T22:25:34.304Z,12.70
2019-03-30T22:28:01.000Z,12.70
2019-03-30T22:30:27.147Z,12.60
2019-03-30T22:32:53.365Z,12.60
2019-03-30T22:35:19.500Z,12.50
2019-03-30T22:37:45.598Z,12.50
2019-03-30T22:40:11.820Z,12.40
2019-03-30T22:42:38.041Z,12.40
2019-03-30T22:45:04.650Z,12.40
2019-03-30T22:47:30.782Z,12.30
2019-03-30T22:49:56.933Z,12.30
2019-03-30T22:52:23.102Z,12.30
2019-03-30T22:54:49.250Z,12.20
2019-03-30T22:57:15.378Z,12.10
2019-03-30T22:59:41.472Z,12.10
2019-03-30T23:02:07.663Z,12.00
2019-03-30T23:04:36.194Z,11.90
2019-03-30T23:07:02.587Z,11.90
2019-03-30T23:09:28.783Z,11.80
2019-03-30T23:11:54.886Z,11.80
2019-03-30T23:14:21.023Z,11.70
2019-03-30T23:16:47.124Z,11.70
2019-03-30T23:19:13.332Z,11.70
2019-03-30T23:21:39.423Z,11.70
2019-03-30T23:24:05.555Z,11.60
2019-03-30T23:26:31.673Z,11.60
2019-03-30T23:28:59.499Z,11.60
2019-03-30T23:31:25.923Z,11.50
2019-03-30T23:33:52.042Z,11.40
2019-03-30T23:36:18.187Z,11.40
2019-03-30T23:38:44.291Z,11.30
2019-03-30T23:41:10.400Z,11.30
2019-03-30T23:43:36.506Z,11.30
2019-03-30T23:46:02.807Z,11.30
2019-03-30T23:48:28.926Z,11.30
2019-03-30T23:50:56.731Z,11.20
2019-03-30T23:53:22.836Z,11.20
2019-03-30T23:55:48.958Z,11.20
2019-03-30T23:58:15.073Z,11.20
